createdAt,value
2023-04-20T00:01:24.908Z,8.00
2023-04-20T00:03:52.200Z,8.00
2023-04-20T00:06:21.901Z,7.20
2023-04-20T00:08:49.006Z,7.10
2023-04-20T00:11:15.824Z,8.50
2023-04-20T00:13:42.774Z,6.40
2023-04-20T00:16:09.551Z,6.90
2023-04-20T00:18:36.289Z,6.20
2023-04-20T00:21:03.703Z,7.90
2023-04-20T00:23:30.586Z,7.50
2023-04-20T00:25:57.324Z,6.40
2023-04-20T00:28:24.129Z,7.20
2023-04-20T00:30:51.174Z,6.20
2023-04-20T00:33:18.035Z,7.30
2023-04-20T00:35:44.758Z,6.90
2023-04-20T00:38:11.630Z,7.30
2023-04-20T00:40:38.430Z,7.50
2023-04-20T00:43:12.033Z,7.30
2023-04-20T00:45:38.823Z,8.90
2023-04-20T00:48:05.967Z,6.60
2023-04-20T00:50:33.570Z,7.10
2023-04-20T00:53:00.998Z,5.70
2023-04-20T00:55:28.523Z,7.60
2023-04-20T00:57:55.614Z,7.30
2023-04-20T01:00:22.609Z,7.00
2023-04-20T01:02:49.497Z,6.60
2023-04-20T01:05:16.340Z,5.60
2023-04-20T01:07:43.113Z,6.00
2023-04-20T01:10:10.153Z,5.60
2023-04-20T01:12:39.809Z,6.60
2023-04-20T01:15:06.921Z,6.30
2023-04-20T01:17:33.755Z,5.70
2023-04-20T01:20:00.798Z,5.60
2023-04-20T01:22:27.845Z,7.60
2023-04-20T01:24:54.560Z,5.70
2023-04-20T01:27:21.350Z,5.70
2023-04-20T01:29:48.092Z,6.40
2023-04-20T01:32:14.866Z,6.50
2023-04-20T01:34:41.619Z,7.30
2023-04-20T01:37:08.578Z,7.60
2023-04-20T01:39:36.370Z,7.00
2023-04-20T01:42:03.224Z,5.90
2023-04-20T01:44:29.927Z,6.50
2023-04-20T01:46:56.736Z,7.10
2023-04-20T01:49:23.568Z,6.00
2023-04-20T01:51:51.742Z,9.10
2023-04-20T01:54:18.528Z,6.80
2023-04-20T01:56:45.366Z,6.90
2023-04-20T01:59:12.116Z,5.80
2023-04-20T02:01:39.015Z,7.10
2023-04-20T02:04:05.966Z,5.70
2023-04-20T02:06:33.278Z,6.60
2023-04-20T02:09:00.127Z,6.20
2023-04-20T02:11:26.981Z,6.00
2023-04-20T02:13:53.749Z,8.30
2023-04-20T02:16:21.893Z,5.80
2023-04-20T02:18:48.779Z,6.00
2023-04-20T02:21:15.519Z,5.70
2023-04-20T02:23:42.312Z,7.70
2023-04-20T02:26:09.131Z,6.80
2023-04-20T02:28:36.119Z,6.20
2023-04-20T02:31:04.751Z,7.50
2023-04-20T02:33:32.022Z,5.80
2023-04-20T02:35:58.855Z,7.10
2023-04-20T02:38:25.803Z,6.30
2023-04-20T02:40:52.714Z,7.50
2023-04-20T02:43:19.628Z,7.60
2023-04-20T02:45:46.939Z,6.80
2023-04-20T02:48:13.745Z,7.00
2023-04-20T02:50:41.868Z,6.70
2023-04-20T02:53:16.337Z,6.30
2023-04-20T02:55:44.624Z,5.80
2023-04-20T02:58:20.930Z,6.10
2023-04-20T03:01:13.675Z,5.70
2023-04-20T03:03:40.963Z,5.10
2023-04-20T03:06:10.300Z,5.80
2023-04-20T03:08:37.215Z,6.80
2023-04-20T03:11:19.527Z,6.70
2023-04-20T03:13:46.334Z,6.00
2023-04-20T03:16:13.092Z,8.70
2023-04-20T03:18:49.937Z,6.70
2023-04-20T03:21:16.709Z,6.90
2023-04-20T03:23:43.931Z,6.80
2023-04-20T03:26:11.108Z,6.90
2023-04-20T03:29:01.802Z,8.50
2023-04-20T03:31:29.282Z,6.70
2023-04-20T03:33:56.624Z,6.10
2023-04-20T03:36:23.393Z,7.50
2023-04-20T03:38:50.181Z,7.10
2023-04-20T03:41:17.111Z,7.20
2023-04-20T03:43:43.916Z,6.30
2023-04-20T03:46:10.832Z,5.80
2023-04-20T03:48:37.625Z,6.90
2023-04-20T03:51:04.526Z,6.80
2023-04-20T03:53:31.385Z,6.50
2023-04-20T03:55:58.419Z,7.90
2023-04-20T03:58:25.461Z,6.90
2023-04-20T04:01:01.763Z,7.60
2023-04-20T04:03:28.892Z,8.50
2023-04-20T04:05:56.225Z,8.80
2023-04-20T04:08:23.096Z,7.10
2023-04-20T04:10:50.050Z,8.50
2023-04-20T04:13:16.948Z,7.80
2023-04-20T04:15:43.785Z,11.10
2023-04-20T04:18:12.336Z,8.40
2023-04-20T04:20:39.544Z,7.10
2023-04-20T04:23:06.936Z,9.40
2023-04-20T04:25:41.333Z,8.80
2023-04-20T04:28:09.417Z,8.80
2023-04-20T04:30:38.177Z,9.40
2023-04-20T04:33:06.368Z,9.20
2023-04-20T04:35:34.728Z,6.90
2023-04-20T04:38:02.315Z,6.30
2023-04-20T04:40:29.354Z,7.60
2023-04-20T04:42:56.668Z,6.90
2023-04-20T04:45:25.421Z,7.40
2023-04-20T04:47:54.090Z,6.90
2023-04-20T04:50:21.932Z,7.50
2023-04-20T04:52:48.720Z,7.90
2023-04-20T04:55:16.529Z,9.20
2023-04-20T04:57:43.666Z,10.60
2023-04-20T05:00:12.064Z,6.60
2023-04-20T05:02:39.260Z,6.90
2023-04-20T05:05:09.388Z,11.00
2023-04-20T05:07:36.534Z,7.30
2023-04-20T05:10:03.304Z,7.30
2023-04-20T05:12:30.395Z,7.40
2023-04-20T05:14:57.107Z,6.00
2023-04-20T05:17:23.882Z,6.40
2023-04-20T05:19:50.792Z,8.40
2023-04-20T05:22:17.507Z,6.60
2023-04-20T05:24:44.448Z,6.50
2023-04-20T05:27:11.491Z,6.60
2023-04-20T05:29:38.610Z,6.90
2023-04-20T05:32:05.511Z,7.30
2023-04-20T05:34:32.423Z,7.50
2023-04-20T05:36:59.509Z,7.10
2023-04-20T05:39:26.511Z,6.10
2023-04-20T05:41:53.637Z,7.80
2023-04-20T05:44:20.660Z,5.70
2023-04-20T05:46:47.382Z,6.00
2023-04-20T05:49:14.252Z,5.70
2023-04-20T05:51:41.002Z,7.30
2023-04-20T05:54:07.770Z,6.10
2023-04-20T05:56:34.549Z,6.80
2023-04-20T05:59:01.462Z,5.60
2023-04-20T06:01:28.300Z,6.00
2023-04-20T06:03:55.378Z,5.80
2023-04-20T06:06:26.825Z,7.30
2023-04-20T06:08:53.661Z,6.10
2023-04-20T06:11:20.685Z,7.20
2023-04-20T06:13:47.503Z,6.80
2023-04-20T06:16:14.299Z,6.30
2023-04-20T06:18:41.094Z,6.40
2023-04-20T06:21:09.821Z,7.30
2023-04-20T06:23:37.730Z,8.40
2023-04-20T06:26:05.084Z,7.10
2023-04-20T06:28:31.807Z,7.10
2023-04-20T06:30:58.598Z,6.10
2023-04-20T06:33:25.414Z,7.30
2023-04-20T06:35:54.576Z,8.20
2023-04-20T06:38:21.308Z,6.80
2023-04-20T06:40:48.016Z,6.90
2023-04-20T06:43:14.720Z,7.00
2023-04-20T06:45:41.626Z,6.10
2023-04-20T06:48:17.327Z,15.50
2023-04-20T06:50:54.745Z,6.80
2023-04-20T06:53:21.545Z,6.80
2023-04-20T06:55:48.203Z,6.70
2023-04-20T06:58:14.966Z,6.60
2023-04-20T07:00:41.942Z,5.30
2023-04-20T07:03:08.822Z,8.00
2023-04-20T07:05:36.662Z,7.20
2023-04-20T07:08:03.873Z,6.40
2023-04-20T07:10:30.661Z,6.40
2023-04-20T07:12:57.450Z,12.30
2023-04-20T07:15:24.320Z,12.90
2023-04-20T07:17:51.087Z,7.70
2023-04-20T07:20:18.037Z,9.40
2023-04-20T07:22:44.906Z,10.60
2023-04-20T07:25:11.835Z,7.20
2023-04-20T07:27:39.538Z,6.50
2023-04-20T07:30:07.407Z,6.10
2023-04-20T07:32:36.309Z,6.90
2023-04-20T07:35:03.734Z,5.80
2023-04-20T07:37:31.774Z,5.50
2023-04-20T07:39:58.568Z,5.30
2023-04-20T07:42:25.476Z,6.60
2023-04-20T07:44:52.531Z,6.30
2023-04-20T07:47:19.472Z,7.10
2023-04-20T07:49:46.751Z,5.90
2023-04-20T07:52:17.018Z,5.40
2023-04-20T07:54:47.520Z,7.40
2023-04-20T07:57:14.290Z,7.90
2023-04-20T07:59:41.334Z,6.60
2023-04-20T08:02:08.445Z,6.80
2023-04-20T08:04:39.001Z,5.90
2023-04-20T08:07:06.028Z,7.30
2023-04-20T08:09:32.865Z,5.80
2023-04-20T08:12:00.432Z,36.60
2023-04-20T08:14:27.293Z,7.80
2023-04-20T08:16:54.093Z,19.50
2023-04-20T08:19:21.224Z,11.20
2023-04-20T08:21:48.027Z,7.30
2023-04-20T08:24:14.838Z,11.10
2023-04-20T08:26:43.440Z,7.70
2023-04-20T08:29:10.891Z,7.30
2023-04-20T08:31:37.727Z,6.90
2023-04-20T08:34:04.621Z,6.70
2023-04-20T08:36:32.199Z,8.40
2023-04-20T08:39:10.467Z,8.60
2023-04-20T08:41:37.205Z,6.50
2023-04-20T08:44:04.315Z,6.60
2023-04-20T08:46:31.279Z,6.70
2023-04-20T08:49:00.576Z,6.90
2023-04-20T08:51:27.372Z,6.50
2023-04-20T08:53:55.723Z,7.70
2023-04-20T08:56:39.282Z,8.90
2023-04-20T08:59:09.437Z,12.10
2023-04-20T09:01:36.920Z,11.10
2023-04-20T09:04:15.289Z,8.30
2023-04-20T09:06:52.417Z,6.70
2023-04-20T09:09:20.052Z,6.40
2023-04-20T09:11:46.930Z,8.90
2023-04-20T09:14:15.271Z,7.00
2023-04-20T09:16:50.710Z,7.40
2023-04-20T09:19:27.463Z,8.60
2023-04-20T09:21:55.905Z,8.00
2023-04-20T09:24:23.534Z,7.00
2023-04-20T09:26:50.548Z,6.80
2023-04-20T09:29:21.634Z,8.60
2023-04-20T09:31:48.851Z,8.10
2023-04-20T09:34:16.663Z,7.30
2023-04-20T09:36:45.432Z,6.60
2023-04-20T09:39:16.931Z,9.10
2023-04-20T09:41:43.891Z,7.30
2023-04-20T09:44:11.095Z,8.50
2023-04-20T09:46:41.575Z,7.90
2023-04-20T09:49:09.165Z,7.10
2023-04-20T09:51:37.502Z,7.60
2023-04-20T09:54:05.823Z,8.60
2023-04-20T09:56:33.259Z,7.40
2023-04-20T09:59:01.163Z,9.20
2023-04-20T10:01:30.436Z,7.70
2023-04-20T10:03:59.280Z,8.30
2023-04-20T10:06:27.871Z,8.50
2023-04-20T10:08:55.471Z,12.90
2023-04-20T10:11:27.975Z,9.10
2023-04-20T10:13:59.020Z,8.20
2023-04-20T10:16:26.522Z,9.20
2023-04-20T10:18:57.825Z,6.60
2023-04-20T10:21:24.795Z,9.10
2023-04-20T10:23:51.960Z,6.90
2023-04-20T10:26:19.065Z,7.80
2023-04-20T10:28:46.524Z,8.60
2023-04-20T10:31:15.231Z,10.50
2023-04-20T10:33:57.383Z,9.10
2023-04-20T10:36:24.988Z,8.70
2023-04-20T10:38:52.407Z,14.10
2023-04-20T10:41:19.686Z,9.00
2023-04-20T10:43:46.630Z,8.20
2023-04-20T10:46:17.177Z,8.30
2023-04-20T10:48:50.780Z,9.00
2023-04-20T10:51:21.293Z,7.20
2023-04-20T10:53:57.871Z,7.90
2023-04-20T10:56:24.967Z,8.60
2023-04-20T10:58:51.742Z,6.70
2023-04-20T11:01:18.550Z,7.70
2023-04-20T11:03:49.569Z,7.30
2023-04-20T11:06:16.415Z,7.20
2023-04-20T11:08:43.739Z,6.40
2023-04-20T11:11:19.647Z,7.50
2023-04-20T11:13:46.623Z,8.70
2023-04-20T11:16:14.266Z,8.10
2023-04-20T11:18:54.067Z,9.20
2023-04-20T11:21:21.892Z,6.70
2023-04-20T11:23:48.880Z,9.50
2023-04-20T11:26:15.790Z,7.80
2023-04-20T11:28:55.179Z,6.40
2023-04-20T11:31:23.471Z,7.70
2023-04-20T11:33:50.583Z,6.40
2023-04-20T11:36:21.617Z,5.60
2023-04-20T11:38:49.129Z,9.40
2023-04-20T11:41:17.105Z,6.90
2023-04-20T11:43:44.366Z,8.30
2023-04-20T11:46:15.350Z,10.20
2023-04-20T11:48:42.210Z,6.50
2023-04-20T11:51:09.003Z,7.50
2023-04-20T11:53:35.962Z,6.90
2023-04-20T11:56:02.708Z,7.70
2023-04-20T11:58:29.520Z,6.80
2023-04-20T12:00:56.316Z,7.90
2023-04-20T12:03:23.233Z,6.40
2023-04-20T12:05:50.162Z,5.60
2023-04-20T12:08:17.492Z,8.00
2023-04-20T12:10:44.310Z,7.40
2023-04-20T12:13:11.117Z,6.20
2023-04-20T12:15:37.924Z,7.20
2023-04-20T12:18:04.623Z,6.50
2023-04-20T12:20:31.408Z,5.60
2023-04-20T12:22:59.170Z,5.00
2023-04-20T12:25:26.359Z,5.70
2023-04-20T12:27:53.091Z,6.90
2023-04-20T12:30:19.942Z,5.20
2023-04-20T12:32:46.715Z,8.40
2023-04-20T12:35:13.484Z,6.00
2023-04-20T12:37:40.348Z,5.50
2023-04-20T12:40:07.493Z,5.90
2023-04-20T12:42:34.337Z,5.90
2023-04-20T12:45:01.535Z,6.70
2023-04-20T12:47:28.348Z,5.00
2023-04-20T12:49:55.329Z,4.90
2023-04-20T12:52:22.128Z,5.10
2023-04-20T12:54:48.861Z,5.10
2023-04-20T12:57:15.626Z,6.70
2023-04-20T12:59:43.036Z,5.20
2023-04-20T13:02:11.091Z,5.00
2023-04-20T13:04:37.846Z,5.50
2023-04-20T13:07:04.641Z,7.30
2023-04-20T13:09:31.349Z,5.50
2023-04-20T13:11:58.180Z,6.40
2023-04-20T13:14:25.570Z,6.10
2023-04-20T13:16:54.996Z,5.80
2023-04-20T13:19:22.166Z,5.10
2023-04-20T13:21:48.951Z,6.00
2023-04-20T13:24:15.893Z,5.50
2023-04-20T13:26:42.828Z,6.10
2023-04-20T13:29:09.594Z,5.90
2023-04-20T13:31:37.600Z,5.90
2023-04-20T13:34:04.473Z,8.70
2023-04-20T13:36:31.914Z,5.40
2023-04-20T13:38:59.072Z,4.70
2023-04-20T13:41:25.838Z,7.40
2023-04-20T13:43:52.582Z,4.70
2023-04-20T13:46:20.225Z,5.20
2023-04-20T13:48:47.022Z,6.20
2023-04-20T13:51:13.920Z,6.20
2023-04-20T13:53:40.706Z,6.10
2023-04-20T13:56:07.547Z,4.70
2023-04-20T13:58:34.404Z,5.20
2023-04-20T14:01:01.195Z,5.50
2023-04-20T14:03:28.118Z,6.00
2023-04-20T14:05:54.981Z,5.60
2023-04-20T14:08:23.383Z,5.70
2023-04-20T14:10:50.195Z,8.20
2023-04-20T14:13:16.952Z,5.70
2023-04-20T14:15:43.688Z,6.00
2023-04-20T14:18:10.609Z,5.40
2023-04-20T14:20:37.410Z,4.90
2023-04-20T14:23:04.162Z,5.90
2023-04-20T14:25:31.506Z,4.80
2023-04-20T14:27:58.306Z,4.60
2023-04-20T14:30:25.114Z,6.30
2023-04-20T14:32:58.922Z,5.20
2023-04-20T14:35:26.488Z,5.70
2023-04-20T14:37:53.399Z,4.70
2023-04-20T14:40:20.741Z,5.20
2023-04-20T14:42:47.543Z,7.40
2023-04-20T14:45:14.250Z,6.20
2023-04-20T14:47:41.378Z,5.60
2023-04-20T14:50:08.975Z,10.60
2023-04-20T14:52:35.756Z,6.60
2023-04-20T14:55:02.917Z,5.10
2023-04-20T14:57:29.797Z,6.50
2023-04-20T14:59:56.580Z,6.60
2023-04-20T15:02:23.476Z,5.80
2023-04-20T15:04:50.626Z,5.80
2023-04-20T15:07:18.812Z,50.80
2023-04-20T15:09:46.111Z,18.40
2023-04-20T15:12:12.816Z,23.00
2023-04-20T15:14:39.576Z,10.90
2023-04-20T15:17:06.346Z,6.60
2023-04-20T15:19:33.085Z,6.40
2023-04-20T15:22:00.770Z,4.50
2023-04-20T15:24:27.564Z,5.30
2023-04-20T15:26:54.360Z,8.60
2023-04-20T15:29:21.465Z,6.80
2023-04-20T15:31:48.330Z,6.10
2023-04-20T15:34:17.269Z,5.10
2023-04-20T15:36:44.552Z,5.80
2023-04-20T15:39:11.626Z,7.80
2023-04-20T15:41:38.571Z,6.00
2023-04-20T15:44:05.775Z,6.10
2023-04-20T15:46:32.684Z,6.30
2023-04-20T15:48:59.705Z,5.80
2023-04-20T15:51:28.128Z,4.90
2023-04-20T15:53:55.059Z,5.70
2023-04-20T15:56:24.775Z,5.40
2023-04-20T15:58:51.924Z,7.70
2023-04-20T16:01:19.843Z,6.20
2023-04-20T16:03:47.591Z,4.70
2023-04-20T16:06:14.506Z,5.00
2023-04-20T16:08:41.583Z,4.30
2023-04-20T16:11:08.316Z,5.80
2023-04-20T16:13:36.508Z,6.70
2023-04-20T16:16:03.532Z,4.30
2023-04-20T16:18:32.277Z,5.00
2023-04-20T16:20:59.343Z,4.70
2023-04-20T16:23:26.282Z,7.30
2023-04-20T16:25:53.056Z,7.30
2023-04-20T16:28:19.876Z,5.40
2023-04-20T16:30:46.618Z,7.30
2023-04-20T16:33:13.871Z,5.30
2023-04-20T16:35:40.974Z,5.30
2023-04-20T16:38:10.146Z,5.70
2023-04-20T16:40:37.357Z,5.90
2023-04-20T16:43:04.095Z,7.90
2023-04-20T16:45:32.290Z,4.50
2023-04-20T16:47:59.127Z,6.70
2023-04-20T16:50:25.975Z,6.90
2023-04-20T16:52:52.783Z,4.40
2023-04-20T16:55:19.631Z,6.60
2023-04-20T16:57:46.465Z,4.60
2023-04-20T17:00:14.368Z,6.10
2023-04-20T17:02:41.230Z,6.80
2023-04-20T17:05:08.272Z,6.20
2023-04-20T17:07:36.534Z,5.60
2023-04-20T17:10:03.685Z,6.40
2023-04-20T17:12:30.475Z,8.70
2023-04-20T17:14:57.268Z,16.30
2023-04-20T17:17:25.275Z,10.70
2023-04-20T17:19:52.190Z,10.90
2023-04-20T17:22:19.734Z,9.90
2023-04-20T17:24:47.251Z,8.00
2023-04-20T17:27:16.530Z,5.90
2023-04-20T17:29:45.657Z,10.40
2023-04-20T17:32:13.566Z,6.50
2023-04-20T17:34:42.663Z,8.40
2023-04-20T17:37:11.953Z,8.40
2023-04-20T17:39:38.666Z,9.80
2023-04-20T17:42:05.498Z,7.80
2023-04-20T17:44:32.408Z,9.80
2023-04-20T17:47:01.138Z,11.50
2023-04-20T17:49:31.130Z,15.00
2023-04-20T17:51:58.280Z,8.30
2023-04-20T17:54:27.374Z,6.40
2023-04-20T17:56:55.054Z,8.80
2023-04-20T17:59:21.924Z,8.50
2023-04-20T18:01:49.938Z,8.20
2023-04-20T18:04:17.073Z,7.30
2023-04-20T18:06:44.009Z,6.20
2023-04-20T18:09:13.416Z,7.40
2023-04-20T18:11:40.919Z,6.60
2023-04-20T18:14:07.925Z,5.10
2023-04-20T18:16:34.862Z,5.90
2023-04-20T18:19:02.235Z,8.10
2023-04-20T18:21:30.739Z,7.70
2023-04-20T18:23:57.624Z,6.60
2023-04-20T18:26:25.598Z,6.50
2023-04-20T18:28:52.913Z,7.00
2023-04-20T18:31:19.921Z,7.20
2023-04-20T18:33:47.492Z,9.40
2023-04-20T18:36:16.312Z,11.30
2023-04-20T18:38:43.409Z,10.30
2023-04-20T18:41:11.299Z,9.60
2023-04-20T18:43:39.365Z,10.90
2023-04-20T18:46:07.668Z,6.60
2023-04-20T18:48:35.136Z,12.00
2023-04-20T18:51:04.025Z,9.20
2023-04-20T18:53:32.113Z,8.50
2023-04-20T18:56:02.248Z,8.40
2023-04-20T18:58:29.670Z,10.60
2023-04-20T19:00:56.980Z,9.70
2023-04-20T19:03:25.204Z,10.40
2023-04-20T19:05:53.022Z,10.20
2023-04-20T19:08:20.660Z,11.90
2023-04-20T19:10:48.254Z,11.60
2023-04-20T19:13:19.201Z,14.40
2023-04-20T19:15:46.703Z,13.30
2023-04-20T19:18:15.506Z,12.90
2023-04-20T19:20:43.072Z,15.90
2023-04-20T19:23:11.546Z,12.20
2023-04-20T19:25:39.360Z,13.70
2023-04-20T19:28:08.384Z,12.20
2023-04-20T19:30:36.286Z,14.90
2023-04-20T19:33:05.624Z,11.60
2023-04-20T19:35:33.148Z,10.70
2023-04-20T19:38:01.177Z,13.10
2023-04-20T19:40:28.513Z,13.60
2023-04-20T19:42:55.675Z,13.30
2023-04-20T19:45:27.998Z,14.10
2023-04-20T19:47:55.935Z,14.20
2023-04-20T19:50:23.523Z,13.90
2023-04-20T19:52:51.107Z,13.10
2023-04-20T19:55:18.025Z,11.60
2023-04-20T19:57:45.264Z,13.60
2023-04-20T20:00:13.810Z,11.40
2023-04-20T20:02:42.133Z,14.30
2023-04-20T20:05:09.423Z,14.90
2023-04-20T20:07:36.774Z,16.10
2023-04-20T20:10:04.396Z,12.40
2023-04-20T20:12:31.172Z,14.20
2023-04-20T20:14:57.912Z,14.40
2023-04-20T20:17:24.665Z,14.60
2023-04-20T20:19:53.786Z,15.60
2023-04-20T20:22:21.855Z,17.20
2023-04-20T20:24:51.164Z,23.00
2023-04-20T20:27:19.100Z,21.60
2023-04-20T20:29:46.577Z,15.60
2023-04-20T20:32:13.408Z,13.60
2023-04-20T20:34:40.468Z,13.60
2023-04-20T20:37:07.455Z,15.50
2023-04-20T20:39:34.220Z,16.40
2023-04-20T20:42:02.092Z,13.40
2023-04-20T20:44:29.790Z,16.90
2023-04-20T20:46:56.673Z,15.60
2023-04-20T20:49:23.594Z,14.30
2023-04-20T20:51:50.372Z,13.00
2023-04-20T20:54:17.138Z,13.60
2023-04-20T20:56:43.934Z,15.80
2023-04-20T20:59:10.772Z,14.90
2023-04-20T21:01:37.535Z,17.50
2023-04-20T21:04:04.953Z,14.20
2023-04-20T21:06:32.816Z,16.10
2023-04-20T21:08:59.699Z,13.00
2023-04-20T21:11:26.436Z,12.20
2023-04-20T21:13:54.321Z,10.60
2023-04-20T21:16:21.172Z,12.30
2023-04-20T21:18:47.962Z,12.50
2023-04-20T21:21:15.669Z,12.60
2023-04-20T21:23:42.452Z,13.30
2023-04-20T21:26:09.198Z,12.80
2023-04-20T21:28:35.950Z,12.20
2023-04-20T21:31:02.685Z,11.10
2023-04-20T21:33:29.495Z,10.70
2023-04-20T21:35:58.853Z,10.60
2023-04-20T21:38:25.817Z,14.20
2023-04-20T21:40:52.587Z,21.30
2023-04-20T21:43:19.390Z,23.20
2023-04-20T21:45:46.168Z,15.10
2023-04-20T21:48:13.031Z,18.60
2023-04-20T21:50:39.813Z,12.60
2023-04-20T21:53:06.630Z,16.10
2023-04-20T21:55:33.473Z,16.10
2023-04-20T21:58:00.993Z,25.00
2023-04-20T22:00:28.079Z,43.20
2023-04-20T22:02:54.970Z,51.90
2023-04-20T22:05:21.908Z,48.00
2023-04-20T22:07:48.713Z,33.30
2023-04-20T22:10:15.569Z,34.40
2023-04-20T22:12:42.570Z,26.80
2023-04-20T22:15:10.793Z,27.30
2023-04-20T22:17:40.714Z,19.70
2023-04-20T22:20:09.273Z,31.50
2023-04-20T22:22:36.405Z,30.80
2023-04-20T22:25:04.643Z,29.90
2023-04-20T22:27:31.989Z,26.40
2023-04-20T22:29:58.932Z,22.70
2023-04-20T22:32:25.783Z,23.60
2023-04-20T22:34:52.555Z,18.20
2023-04-20T22:37:19.396Z,22.10
2023-04-20T22:39:46.199Z,22.00
2023-04-20T22:42:12.954Z,21.00
2023-04-20T22:44:39.756Z,17.60
2023-04-20T22:47:06.599Z,17.60
2023-04-20T22:49:33.449Z,15.60
2023-04-20T22:52:00.406Z,13.70
2023-04-20T22:54:27.219Z,11.90
2023-04-20T22:56:53.987Z,14.30
2023-04-20T22:59:20.929Z,14.10
2023-04-20T23:01:47.893Z,15.60
2023-04-20T23:04:14.764Z,16.40
2023-04-20T23:06:43.986Z,14.50
2023-04-20T23:09:12.560Z,16.20
2023-04-20T23:11:39.636Z,15.20
2023-04-20T23:14:07.124Z,17.50
2023-04-20T23:16:34.188Z,18.20
2023-04-20T23:19:01.214Z,17.10
2023-04-20T23:21:31.257Z,18.40
2023-04-20T23:23:58.065Z,17.20
2023-04-20T23:26:25.175Z,19.40
2023-04-20T23:28:52.822Z,18.20
2023-04-20T23:31:20.194Z,14.90
2023-04-20T23:33:47.405Z,14.70
2023-04-20T23:36:14.195Z,17.40
2023-04-20T23:38:41.073Z,15.80
2023-04-20T23:41:11.489Z,16.70
2023-04-20T23:43:38.707Z,15.40
2023-04-20T23:46:08.671Z,14.50
2023-04-20T23:48:35.525Z,15.20
2023-04-20T23:51:02.547Z,15.40
2023-04-20T23:53:29.365Z,13.80
2023-04-20T23:55:56.136Z,12.50
2023-04-20T23:58:25.805Z,14.60
